createdAt,value
2018-10-03T00:00:30.548Z,1015.17
2018-10-03T00:01:30.225Z,1015.15
2018-10-03T00:02:30.301Z,1015.17
2018-10-03T00:03:30.329Z,1015.21
2018-10-03T00:04:30.305Z,1015.22
2018-10-03T00:05:30.387Z,1015.29
2018-10-03T00:07:30.458Z,1015.26
2018-10-03T00:08:30.748Z,1015.30
2018-10-03T00:09:30.518Z,1015.30
2018-10-03T00:10:30.542Z,1015.31
2018-10-03T00:11:30.869Z,1015.31
2018-10-03T00:12:30.558Z,1015.27
2018-10-03T00:13:30.582Z,1015.30
2018-10-03T00:14:30.626Z,1015.28
2018-10-03T00:15:30.690Z,1015.29
2018-10-03T00:16:30.734Z,1015.28
2018-10-03T00:17:30.715Z,1015.32
2018-10-03T00:18:30.789Z,1015.36
2018-10-03T00:19:30.817Z,1015.41
2018-10-03T00:20:30.840Z,1015.41
2018-10-03T00:21:31.127Z,1015.44
2018-10-03T00:22:30.846Z,1015.43
2018-10-03T00:23:31.019Z,1015.42
2018-10-03T00:24:30.971Z,1015.43
2018-10-03T00:25:30.943Z,1015.40
2018-10-03T00:26:30.970Z,1015.42
2018-10-03T00:27:31.045Z,1015.40
2018-10-03T00:28:31.327Z,1015.45
2018-10-03T00:29:31.118Z,1015.48
2018-10-03T00:30:31.140Z,1015.46
2018-10-03T00:31:31.122Z,1015.46
2018-10-03T00:32:31.145Z,1015.44
2018-10-03T00:33:31.182Z,1015.45
2018-10-03T00:34:31.275Z,1015.47
2018-10-03T00:35:31.290Z,1015.53
2018-10-03T00:36:31.321Z,1015.49
2018-10-03T00:37:31.346Z,1015.48
2018-10-03T00:38:31.332Z,1015.42
2018-10-03T00:40:31.447Z,1015.44
2018-10-03T00:41:31.771Z,1015.44
2018-10-03T00:42:31.505Z,1015.45
2018-10-03T00:43:31.530Z,1015.44
2018-10-03T00:44:31.564Z,1015.49
2018-10-03T00:45:31.540Z,1015.54
2018-10-03T00:47:31.599Z,1015.54
2018-10-03T00:48:31.630Z,1015.58
2018-10-03T00:49:31.715Z,1015.57
2018-10-03T00:50:31.745Z,1015.61
2018-10-03T00:51:31.870Z,1015.62
2018-10-03T00:52:31.800Z,1015.60
2018-10-03T00:53:31.782Z,1015.60
2018-10-03T00:54:32.112Z,1015.61
2018-10-03T00:55:31.892Z,1015.61
2018-10-03T00:56:31.923Z,1015.63
2018-10-03T00:57:31.898Z,1015.64
2018-10-03T00:58:31.989Z,1015.66
2018-10-03T00:59:31.954Z,1015.65
2018-10-03T01:00:32.295Z,1015.72
2018-10-03T01:01:32.065Z,1015.71
2018-10-03T01:02:32.113Z,1015.70
2018-10-03T01:03:32.131Z,1015.66
2018-10-03T01:04:32.155Z,1015.69
2018-10-03T01:05:32.139Z,1015.68
2018-10-03T01:06:32.466Z,1015.72
2018-10-03T01:07:32.254Z,1015.67
2018-10-03T01:08:32.226Z,1015.68
2018-10-03T01:09:32.312Z,1015.64
2018-10-03T01:10:32.357Z,1015.70
2018-10-03T01:11:32.374Z,1015.70
2018-10-03T01:12:32.396Z,1015.74
2018-10-03T01:13:32.676Z,1015.75
2018-10-03T01:14:32.464Z,1015.76
2018-10-03T01:15:32.489Z,1015.79
2018-10-03T01:16:32.521Z,1015.82
2018-10-03T01:17:32.551Z,1015.76
2018-10-03T01:18:32.581Z,1015.80
2018-10-03T01:19:32.570Z,1015.81
2018-10-03T01:20:32.895Z,1015.80
2018-10-03T01:21:32.621Z,1015.82
2018-10-03T01:22:32.706Z,1015.80
2018-10-03T01:23:32.733Z,1015.81
2018-10-03T01:24:32.715Z,1015.85
2018-10-03T01:25:32.790Z,1015.76
2018-10-03T01:26:32.818Z,1015.80
2018-10-03T01:27:32.855Z,1015.77
2018-10-03T01:28:32.833Z,1015.74
2018-10-03T01:29:32.864Z,1015.79
2018-10-03T01:30:32.936Z,1015.77
2018-10-03T01:31:32.971Z,1015.73
2018-10-03T01:32:33.003Z,1015.81
2018-10-03T01:33:33.276Z,1015.81
2018-10-03T01:34:33.070Z,1015.82
2018-10-03T01:35:33.095Z,1015.84
2018-10-03T01:36:33.120Z,1015.84
2018-10-03T01:37:33.199Z,1015.81
2018-10-03T01:38:33.367Z,1015.78
2018-10-03T01:39:33.156Z,1015.77
2018-10-03T01:40:33.490Z,1015.76
2018-10-03T01:41:33.223Z,1015.77
2018-10-03T01:42:33.305Z,1015.80
2018-10-03T01:43:33.330Z,1015.82
2018-10-03T01:44:33.320Z,1015.81
2018-10-03T01:45:33.391Z,1015.83
2018-10-03T01:46:33.425Z,1015.84
2018-10-03T01:47:33.701Z,1015.86
2018-10-03T01:48:33.494Z,1015.84
2018-10-03T01:49:33.510Z,1015.82
2018-10-03T01:50:33.540Z,1015.84
2018-10-03T01:51:33.573Z,1015.83
2018-10-03T01:52:33.654Z,1015.80
2018-10-03T01:53:33.581Z,1015.82
2018-10-03T01:54:33.913Z,1015.81
2018-10-03T01:55:33.642Z,1015.85
2018-10-03T01:56:33.718Z,1015.91
2018-10-03T01:57:33.745Z,1015.92
2018-10-03T01:58:33.776Z,1015.89
2018-10-03T01:59:33.811Z,1015.87
2018-10-03T02:00:33.794Z,1015.85
2018-10-03T02:01:34.221Z,1015.89
2018-10-03T02:02:33.850Z,1015.89
2018-10-03T02:03:33.927Z,1015.92
2018-10-03T02:04:33.963Z,1015.90
2018-10-03T02:05:33.948Z,1015.88
2018-10-03T02:06:34.024Z,1015.90
2018-10-03T02:07:34.303Z,1015.87
2018-10-03T02:08:34.081Z,1015.85
2018-10-03T02:09:34.061Z,1015.91
2018-10-03T02:10:34.134Z,1015.91
2018-10-03T02:11:34.175Z,1015.97
2018-10-03T02:12:34.150Z,1015.98
2018-10-03T02:13:34.533Z,1016.04
2018-10-03T02:14:34.280Z,1016.02
2018-10-03T02:15:34.244Z,1016.03
2018-10-03T02:16:34.327Z,1016.01
2018-10-03T02:17:34.355Z,1016.04
2018-10-03T02:18:34.329Z,1016.06
2018-10-03T02:19:34.715Z,1016.04
2018-10-03T02:20:34.385Z,1016.06
2018-10-03T02:21:34.478Z,1016.07
2018-10-03T02:22:34.504Z,1016.12
2018-10-03T02:23:34.525Z,1016.14
2018-10-03T02:24:34.557Z,1016.16
2018-10-03T02:25:34.553Z,1016.20
2018-10-03T02:26:34.885Z,1016.17
2018-10-03T02:27:34.654Z,1016.18
2018-10-03T02:28:34.685Z,1016.19
2018-10-03T02:29:34.662Z,1016.24
2018-10-03T02:30:34.740Z,1016.24
2018-10-03T02:31:34.774Z,1016.23
2018-10-03T02:32:34.749Z,1016.20
2018-10-03T02:33:35.077Z,1016.17
2018-10-03T02:34:34.815Z,1016.22
2018-10-03T02:35:34.889Z,1016.23
2018-10-03T02:36:34.865Z,1016.19
2018-10-03T02:37:34.905Z,1016.20
2018-10-03T02:38:34.979Z,1016.20
2018-10-03T02:39:35.113Z,1016.22
2018-10-03T02:40:35.345Z,1016.16
2018-10-03T02:41:35.034Z,1016.17
2018-10-03T02:42:35.101Z,1016.22
2018-10-03T02:43:35.133Z,1016.21
2018-10-03T02:44:35.129Z,1016.24
2018-10-03T02:45:35.137Z,1016.23
2018-10-03T02:46:35.230Z,1016.25
2018-10-03T02:47:35.254Z,1016.30
2018-10-03T02:48:35.280Z,1016.29
2018-10-03T02:49:35.306Z,1016.33
2018-10-03T02:50:35.335Z,1016.37
2018-10-03T02:51:35.370Z,1016.33
2018-10-03T02:52:35.353Z,1016.36
2018-10-03T02:53:35.378Z,1016.37
2018-10-03T02:54:35.505Z,1016.38
2018-10-03T02:55:35.490Z,1016.39
2018-10-03T02:56:35.512Z,1016.42
2018-10-03T02:57:35.546Z,1016.47
2018-10-03T02:58:35.575Z,1016.48
2018-10-03T02:59:35.907Z,1016.45
2018-10-03T03:01:35.745Z,1016.50
2018-10-03T03:02:35.715Z,1016.52
2018-10-03T03:03:35.737Z,1016.53
2018-10-03T03:04:35.722Z,1016.55
2018-10-03T03:05:36.048Z,1016.51
2018-10-03T03:06:35.822Z,1016.49
2018-10-03T03:07:35.856Z,1016.51
2018-10-03T03:08:35.888Z,1016.51
2018-10-03T03:09:35.860Z,1016.54
2018-10-03T03:10:35.938Z,1016.54
2018-10-03T03:11:36.223Z,1016.55
2018-10-03T03:12:36.005Z,1016.55
2018-10-03T03:13:35.979Z,1016.54
2018-10-03T03:14:36.006Z,1016.59
2018-10-03T03:15:36.114Z,1016.65
2018-10-03T03:16:36.066Z,1016.64
2018-10-03T03:17:36.153Z,1016.58
2018-10-03T03:18:36.179Z,1016.60
2018-10-03T03:19:36.188Z,1016.68
2018-10-03T03:21:36.263Z,1016.73
2018-10-03T03:22:36.299Z,1016.75
2018-10-03T03:24:39.771Z,1016.70
2018-10-03T03:25:39.743Z,1016.74
2018-10-03T03:26:39.824Z,1016.74
2018-10-03T03:27:39.851Z,1016.75
2018-10-03T03:28:39.890Z,1016.72
2018-10-03T03:29:39.943Z,1016.74
2018-10-03T03:30:40.191Z,1016.76
2018-10-03T03:31:39.924Z,1016.75
2018-10-03T03:32:40.005Z,1016.79
2018-10-03T03:33:40.058Z,1016.77
2018-10-03T03:34:40.060Z,1016.80
2018-10-03T03:35:40.042Z,1016.78
2018-10-03T03:36:40.371Z,1016.80
2018-10-03T03:37:40.117Z,1016.80
2018-10-03T03:38:40.147Z,1016.85
2018-10-03T03:39:40.218Z,1016.83
2018-10-03T03:40:40.194Z,1016.84
2018-10-03T03:41:40.273Z,1016.83
2018-10-03T03:42:40.619Z,1016.85
2018-10-03T03:43:40.336Z,1016.79
2018-10-03T03:44:40.359Z,1016.80
2018-10-03T03:45:40.396Z,1016.79
2018-10-03T03:46:40.476Z,1016.80
2018-10-03T03:47:40.416Z,1016.82
2018-10-03T03:48:40.790Z,1016.81
2018-10-03T03:49:40.519Z,1016.84
2018-10-03T03:50:40.538Z,1016.82
2018-10-03T03:51:40.525Z,1016.87
2018-10-03T03:52:40.559Z,1016.84
2018-10-03T03:53:40.631Z,1016.88
2018-10-03T03:54:40.686Z,1016.89
2018-10-03T03:55:40.940Z,1016.88
2018-10-03T03:56:40.667Z,1016.91
2018-10-03T03:57:40.752Z,1016.85
2018-10-03T03:58:40.729Z,1016.87
2018-10-03T04:00:40.838Z,1016.93
2018-10-03T04:01:40.873Z,1016.97
2018-10-03T04:02:41.158Z,1016.96
2018-10-03T04:03:40.881Z,1016.92
2018-10-03T04:04:40.918Z,1016.95
2018-10-03T04:05:40.963Z,1016.95
2018-10-03T04:06:40.978Z,1016.98
2018-10-03T04:07:41.005Z,1016.98
2018-10-03T04:08:41.032Z,1017.00
2018-10-03T04:09:41.120Z,1017.03
2018-10-03T04:11:41.179Z,1017.07
2018-10-03T04:12:41.221Z,1017.05
2018-10-03T04:13:41.185Z,1017.02
2018-10-03T04:14:41.232Z,1017.00
2018-10-03T04:15:41.544Z,1017.02
2018-10-03T04:16:41.320Z,1017.02
2018-10-03T04:17:41.351Z,1017.05
2018-10-03T04:18:41.345Z,1017.07
2018-10-03T04:19:41.412Z,1017.02
2018-10-03T04:20:41.437Z,1017.04
2018-10-03T04:21:41.480Z,1017.00
2018-10-03T04:22:41.748Z,1016.97
2018-10-03T04:23:41.488Z,1016.98
2018-10-03T04:24:41.581Z,1016.96
2018-10-03T04:25:41.604Z,1016.99
2018-10-03T04:26:41.621Z,1017.03
2018-10-03T04:27:41.601Z,1017.02
2018-10-03T04:28:41.682Z,1017.01
2018-10-03T04:29:41.958Z,1017.05
2018-10-03T04:30:41.746Z,1017.06
2018-10-03T04:31:41.822Z,1017.03
2018-10-03T04:32:41.800Z,1017.07
2018-10-03T04:33:41.833Z,1017.06
2018-10-03T04:34:41.868Z,1017.08
2018-10-03T04:35:41.887Z,1017.09
2018-10-03T04:36:42.189Z,1017.10
2018-10-03T04:37:41.949Z,1017.09
2018-10-03T04:38:41.926Z,1017.11
2018-10-03T04:39:42.018Z,1017.12
2018-10-03T04:40:42.039Z,1017.11
2018-10-03T04:42:42.050Z,1017.12
2018-10-03T04:43:42.379Z,1017.14
2018-10-03T04:44:42.170Z,1017.12
2018-10-03T04:45:42.186Z,1017.13
2018-10-03T04:46:42.221Z,1017.15
2018-10-03T04:47:42.253Z,1017.16
2018-10-03T04:48:42.224Z,1017.16
2018-10-03T04:49:42.659Z,1017.23
2018-10-03T04:50:42.339Z,1017.20
2018-10-03T04:51:42.382Z,1017.22
2018-10-03T04:52:42.352Z,1017.27
2018-10-03T04:53:42.443Z,1017.33
2018-10-03T04:54:42.460Z,1017.38
2018-10-03T04:55:42.440Z,1017.39
2018-10-03T04:57:42.551Z,1017.50
2018-10-03T04:58:42.524Z,1017.50
2018-10-03T04:59:42.559Z,1017.52
2018-10-03T05:00:42.589Z,1017.58
2018-10-03T05:01:42.932Z,1017.57
2018-10-03T05:02:42.653Z,1017.57
2018-10-03T05:03:42.672Z,1017.57
2018-10-03T05:04:42.754Z,1017.57
2018-10-03T05:05:42.793Z,1017.62
2018-10-03T05:06:42.766Z,1017.60
2018-10-03T05:08:42.830Z,1017.66
2018-10-03T05:09:43.238Z,1017.68
2018-10-03T05:11:42.980Z,1017.71
2018-10-03T05:12:42.999Z,1017.73
2018-10-03T05:13:43.041Z,1017.78
2018-10-03T05:14:43.076Z,1017.79
2018-10-03T05:16:43.060Z,1017.76
2018-10-03T05:18:43.482Z,1017.83
2018-10-03T05:19:43.202Z,1017.86
2018-10-03T05:20:43.182Z,1017.86
2018-10-03T05:22:43.247Z,1017.90
2018-10-03T05:23:43.321Z,1017.88
2018-10-03T05:24:43.302Z,1017.84
2018-10-03T05:26:43.412Z,1017.85
2018-10-03T05:27:43.407Z,1017.83
2018-10-03T05:28:43.429Z,1017.89
2018-10-03T05:29:43.500Z,1017.89
2018-10-03T05:30:43.842Z,1017.91
2018-10-03T05:31:43.514Z,1017.95
2018-10-03T05:33:43.622Z,1018.00
2018-10-03T05:34:43.668Z,1018.06
2018-10-03T05:35:43.690Z,1018.06
2018-10-03T05:36:43.656Z,1018.12
2018-10-03T05:37:44.038Z,1018.09
2018-10-03T05:38:43.768Z,1018.03
2018-10-03T05:39:44.419Z,1018.03
2018-10-03T05:40:43.781Z,1018.08
2018-10-03T05:41:43.858Z,1018.10
2018-10-03T05:42:43.886Z,1018.15
2018-10-03T05:43:43.881Z,1018.16
2018-10-03T05:44:44.303Z,1018.23
2018-10-03T05:45:43.977Z,1018.20
2018-10-03T05:46:43.957Z,1018.21
2018-10-03T05:47:44.045Z,1018.19
2018-10-03T05:48:44.089Z,1018.20
2018-10-03T05:49:44.101Z,1018.24
2018-10-03T05:50:44.129Z,1018.23
2018-10-03T05:51:44.466Z,1018.28
2018-10-03T05:52:44.195Z,1018.27
2018-10-03T05:53:44.224Z,1018.29
2018-10-03T05:54:44.322Z,1018.34
2018-10-03T05:55:44.222Z,1018.31
2018-10-03T05:56:44.305Z,1018.35
2018-10-03T05:57:44.287Z,1018.32
2018-10-03T05:58:44.649Z,1018.34
2018-10-03T05:59:44.347Z,1018.36
2018-10-03T06:00:44.383Z,1018.36
2018-10-03T06:01:44.461Z,1018.34
2018-10-03T06:02:44.513Z,1018.37
2018-10-03T06:03:44.514Z,1018.40
2018-10-03T06:04:44.493Z,1018.41
2018-10-03T06:05:44.576Z,1018.37
2018-10-03T06:06:44.557Z,1018.37
2018-10-03T06:07:44.632Z,1018.35
2018-10-03T06:08:44.616Z,1018.38
2018-10-03T06:09:44.698Z,1018.33
2018-10-03T06:10:44.733Z,1018.41
2018-10-03T06:11:45.012Z,1018.42
2018-10-03T06:12:44.784Z,1018.41
2018-10-03T06:13:44.816Z,1018.43
2018-10-03T06:14:44.794Z,1018.40
2018-10-03T06:15:44.921Z,1018.43
2018-10-03T06:16:44.956Z,1018.46
2018-10-03T06:17:44.942Z,1018.49
2018-10-03T06:18:45.260Z,1018.49
2018-10-03T06:19:44.995Z,1018.50
2018-10-03T06:20:44.976Z,1018.55
2018-10-03T06:21:45.004Z,1018.59
2018-10-03T06:22:45.078Z,1018.61
2018-10-03T06:23:45.055Z,1018.62
2018-10-03T06:24:45.146Z,1018.62
2018-10-03T06:25:45.477Z,1018.68
2018-10-03T06:26:45.165Z,1018.73
2018-10-03T06:27:45.245Z,1018.73
2018-10-03T06:28:45.211Z,1018.77
2018-10-03T06:29:45.309Z,1018.80
2018-10-03T06:30:45.337Z,1018.84
2018-10-03T06:31:45.601Z,1018.84
2018-10-03T06:32:45.384Z,1018.82
2018-10-03T06:33:45.545Z,1018.84
2018-10-03T06:34:45.433Z,1018.82
2018-10-03T06:35:45.462Z,1018.90
2018-10-03T06:36:45.451Z,1018.91
2018-10-03T06:37:45.915Z,1018.92
2018-10-03T06:38:45.569Z,1018.91
2018-10-03T06:40:45.570Z,1019.00
2018-10-03T06:41:45.649Z,1019.02
2018-10-03T06:42:45.674Z,1018.98
2018-10-03T06:43:45.959Z,1019.02
2018-10-03T06:44:45.692Z,1019.02
2018-10-03T06:45:45.856Z,1019.02
2018-10-03T06:46:45.802Z,1018.99
2018-10-03T06:47:45.776Z,1018.98
2018-10-03T06:48:45.805Z,1018.97
2018-10-03T06:50:45.878Z,1019.08
2018-10-03T06:51:45.946Z,1019.07
2018-10-03T06:52:45.973Z,1019.06
2018-10-03T06:53:46.005Z,1019.08
2018-10-03T06:54:45.982Z,1019.09
2018-10-03T06:55:46.011Z,1019.13
2018-10-03T06:56:46.047Z,1019.15
2018-10-03T06:57:46.380Z,1019.23
2018-10-03T06:58:46.151Z,1019.24
2018-10-03T06:59:46.134Z,1019.26
2018-10-03T07:00:46.169Z,1019.28
2018-10-03T07:01:46.251Z,1019.31
2018-10-03T07:02:46.228Z,1019.32
2018-10-03T07:03:46.313Z,1019.33
2018-10-03T07:04:46.332Z,1019.35
2018-10-03T07:05:46.439Z,1019.39
2018-10-03T07:06:46.395Z,1019.38
2018-10-03T07:07:46.374Z,1019.44
2018-10-03T07:08:46.461Z,1019.46
2018-10-03T07:09:46.492Z,1019.42
2018-10-03T07:10:46.524Z,1019.45
2018-10-03T07:11:46.497Z,1019.46
2018-10-03T07:12:46.527Z,1019.48
2018-10-03T07:13:46.608Z,1019.53
2018-10-03T07:14:46.582Z,1019.50
2018-10-03T07:15:46.665Z,1019.54
2018-10-03T07:16:46.940Z,1019.53
2018-10-03T07:17:46.724Z,1019.52
2018-10-03T07:18:46.712Z,1019.53
2018-10-03T07:19:46.788Z,1019.58
2018-10-03T07:20:46.768Z,1019.56
2018-10-03T07:21:46.844Z,1019.62
2018-10-03T07:22:46.868Z,1019.57
2018-10-03T07:23:47.204Z,1019.63
2018-10-03T07:24:46.885Z,1019.64
2018-10-03T07:25:46.965Z,1019.72
2018-10-03T07:26:46.944Z,1019.73
2018-10-03T07:27:47.031Z,1019.79
2018-10-03T07:28:47.007Z,1019.79
2018-10-03T07:29:47.334Z,1019.83
2018-10-03T07:30:47.113Z,1019.83
2018-10-03T07:31:47.093Z,1019.86
2018-10-03T07:32:47.247Z,1019.85
2018-10-03T07:33:47.164Z,1019.86
2018-10-03T07:34:47.245Z,1019.87
2018-10-03T07:35:47.525Z,1019.89
2018-10-03T07:36:47.249Z,1019.92
2018-10-03T07:38:47.361Z,1019.89
2018-10-03T07:39:47.345Z,1019.88
2018-10-03T07:40:47.365Z,1019.90
2018-10-03T07:41:47.772Z,1019.94
2018-10-03T07:42:47.481Z,1019.90
2018-10-03T07:43:47.511Z,1019.95
2018-10-03T07:44:47.541Z,1019.95
2018-10-03T07:45:47.568Z,1020.02
2018-10-03T07:46:47.546Z,1020.03
2018-10-03T07:47:47.627Z,1020.06
2018-10-03T07:48:47.614Z,1020.12
2018-10-03T07:49:47.680Z,1020.11
2018-10-03T07:50:47.660Z,1020.15
2018-10-03T07:51:47.696Z,1020.18
2018-10-03T07:52:47.773Z,1020.20
2018-10-03T07:53:47.750Z,1020.20
2018-10-03T07:54:48.129Z,1020.22
2018-10-03T07:55:47.840Z,1020.27
2018-10-03T07:56:47.850Z,1020.20
2018-10-03T07:57:47.920Z,1020.28
2018-10-03T07:58:47.917Z,1020.23
2018-10-03T07:59:47.986Z,1020.28
2018-10-03T08:00:47.966Z,1020.27
2018-10-03T08:01:48.299Z,1020.26
2018-10-03T08:02:48.027Z,1020.28
2018-10-03T08:03:48.064Z,1020.28
2018-10-03T08:04:48.136Z,1020.31
2018-10-03T08:05:48.115Z,1020.34
2018-10-03T08:07:48.224Z,1020.39
2018-10-03T08:08:48.515Z,1020.41
2018-10-03T08:09:48.299Z,1020.45
2018-10-03T08:10:48.269Z,1020.45
2018-10-03T08:12:48.380Z,1020.45
2018-10-03T08:14:48.436Z,1020.46
2018-10-03T08:15:48.723Z,1020.47
2018-10-03T08:16:48.444Z,1020.50
2018-10-03T08:17:48.533Z,1020.50
2018-10-03T08:18:48.501Z,1020.56
2018-10-03T08:19:48.587Z,1020.55
2018-10-03T08:20:48.562Z,1020.54
2018-10-03T08:21:48.649Z,1020.57
2018-10-03T08:22:48.924Z,1020.57
2018-10-03T08:23:48.720Z,1020.57
2018-10-03T08:24:48.684Z,1020.62
2018-10-03T08:25:48.774Z,1020.66
2018-10-03T08:26:48.750Z,1020.64
2018-10-03T08:27:48.778Z,1020.66
2018-10-03T08:28:48.867Z,1020.68
2018-10-03T08:29:49.275Z,1020.69
2018-10-03T08:30:48.924Z,1020.67
2018-10-03T08:31:48.952Z,1020.68
2018-10-03T08:32:49.086Z,1020.69
2018-10-03T08:33:49.009Z,1020.70
2018-10-03T08:34:49.039Z,1020.71
2018-10-03T08:35:49.020Z,1020.71
2018-10-03T08:36:49.358Z,1020.77
2018-10-03T08:37:49.141Z,1020.86
2018-10-03T08:39:49.193Z,1020.86
2018-10-03T08:40:49.172Z,1020.88
2018-10-03T08:41:49.196Z,1020.87
2018-10-03T08:42:49.225Z,1020.92
2018-10-03T08:43:49.557Z,1020.89
2018-10-03T08:44:49.346Z,1020.92
2018-10-03T08:45:49.379Z,1020.94
2018-10-03T08:46:49.360Z,1020.94
2018-10-03T08:47:49.402Z,1020.95
2018-10-03T08:48:49.416Z,1020.99
2018-10-03T08:49:49.746Z,1020.95
2018-10-03T08:50:49.529Z,1020.94
2018-10-03T08:51:49.557Z,1021.00
2018-10-03T08:52:49.537Z,1020.99
2018-10-03T08:53:49.616Z,1021.02
2018-10-03T08:54:49.592Z,1021.02
2018-10-03T08:55:49.928Z,1021.04
2018-10-03T08:56:49.708Z,1021.04
2018-10-03T08:57:49.736Z,1021.10
2018-10-03T08:58:49.715Z,1021.08
2018-10-03T08:59:49.800Z,1021.07
2018-10-03T09:00:49.776Z,1021.04
2018-10-03T09:01:50.133Z,1021.03
2018-10-03T09:02:49.834Z,1021.08
2018-10-03T09:03:49.867Z,1021.06
2018-10-03T09:04:49.945Z,1021.08
2018-10-03T09:05:49.930Z,1021.08
2018-10-03T09:06:50.009Z,1021.07
2018-10-03T09:07:49.983Z,1021.10
2018-10-03T09:08:50.321Z,1021.13
2018-10-03T09:09:50.117Z,1021.14
2018-10-03T09:10:50.083Z,1021.09
2018-10-03T09:11:50.161Z,1021.12
2018-10-03T09:12:50.347Z,1021.13
2018-10-03T09:13:50.222Z,1021.16
2018-10-03T09:14:50.203Z,1021.12
2018-10-03T09:15:50.591Z,1021.16
2018-10-03T09:16:50.317Z,1021.18
2018-10-03T09:17:50.342Z,1021.19
2018-10-03T09:18:50.384Z,1021.17
2018-10-03T09:19:50.353Z,1021.20
2018-10-03T09:20:50.391Z,1021.19
2018-10-03T09:21:50.480Z,1021.19
2018-10-03T09:22:50.441Z,1021.24
2018-10-03T09:23:50.527Z,1021.25
2018-10-03T09:24:50.505Z,1021.25
2018-10-03T09:25:50.589Z,1021.27
2018-10-03T09:26:50.839Z,1021.29
2018-10-03T09:27:50.657Z,1021.29
2018-10-03T09:28:50.932Z,1021.34
2018-10-03T09:29:50.710Z,1021.31
2018-10-03T09:30:50.691Z,1021.31
2018-10-03T09:31:50.773Z,1021.35
2018-10-03T09:32:50.805Z,1021.36
2018-10-03T09:33:50.829Z,1021.36
2018-10-03T09:34:50.824Z,1021.33
2018-10-03T09:35:51.150Z,1021.32
2018-10-03T09:36:50.875Z,1021.34
2018-10-03T09:37:50.953Z,1021.34
2018-10-03T09:38:50.978Z,1021.38
2018-10-03T09:39:51.018Z,1021.38
2018-10-03T09:40:50.998Z,1021.39
2018-10-03T09:41:51.072Z,1021.37
2018-10-03T09:42:51.048Z,1021.36
2018-10-03T09:43:51.254Z,1021.38
2018-10-03T09:44:51.114Z,1021.35
2018-10-03T09:45:51.153Z,1021.42
2018-10-03T09:46:51.223Z,1021.44
2018-10-03T09:47:51.203Z,1021.48
2018-10-03T09:48:51.240Z,1021.52
2018-10-03T09:49:51.315Z,1021.51
2018-10-03T09:50:51.304Z,1021.49
2018-10-03T09:51:51.374Z,1021.55
2018-10-03T09:52:51.363Z,1021.54
2018-10-03T09:53:51.392Z,1021.55
2018-10-03T09:54:51.721Z,1021.55
2018-10-03T09:55:51.452Z,1021.54
2018-10-03T09:56:51.479Z,1021.56
2018-10-03T09:57:51.560Z,1021.55
2018-10-03T09:58:51.654Z,1021.60
2018-10-03T09:59:51.571Z,1021.54
2018-10-03T10:00:51.958Z,1021.52
2018-10-03T10:01:51.686Z,1021.53
2018-10-03T10:02:51.713Z,1021.60
2018-10-03T10:03:51.746Z,1021.58
2018-10-03T10:04:51.729Z,1021.53
2018-10-03T10:05:51.814Z,1021.60
2018-10-03T10:06:52.090Z,1021.58
2018-10-03T10:07:51.866Z,1021.61
2018-10-03T10:08:51.906Z,1021.63
2018-10-03T10:09:51.883Z,1021.65
2018-10-03T10:10:51.922Z,1021.66
2018-10-03T10:11:51.945Z,1021.65
2018-10-03T10:12:52.025Z,1021.63
2018-10-03T10:13:52.305Z,1021.67
2018-10-03T10:14:52.082Z,1021.70
2018-10-03T10:15:52.081Z,1021.68
2018-10-03T10:16:52.103Z,1021.68
2018-10-03T10:17:52.172Z,1021.70
2018-10-03T10:18:52.163Z,1021.72
2018-10-03T10:20:52.368Z,1021.74
2018-10-03T10:21:52.649Z,1021.74
2018-10-03T10:22:52.285Z,1021.75
2018-10-03T10:23:52.315Z,1021.77
2018-10-03T10:24:52.396Z,1021.75
2018-10-03T10:25:52.731Z,1021.77
2018-10-03T10:26:52.402Z,1021.75
2018-10-03T10:27:52.443Z,1021.80
2018-10-03T10:28:52.813Z,1021.84
2018-10-03T10:29:52.560Z,1021.82
2018-10-03T10:30:52.526Z,1021.84
2018-10-03T10:31:52.643Z,1021.89
2018-10-03T10:32:52.723Z,1021.88
2018-10-03T10:33:52.684Z,1021.85
2018-10-03T10:34:52.651Z,1021.89
2018-10-03T10:35:52.982Z,1021.88
2018-10-03T10:36:52.763Z,1021.90
2018-10-03T10:37:52.828Z,1021.91
2018-10-03T10:38:52.834Z,1021.88
2018-10-03T10:39:52.854Z,1021.88
2018-10-03T10:40:52.853Z,1021.90
2018-10-03T10:41:52.917Z,1021.94
2018-10-03T10:42:53.308Z,1021.91
2018-10-03T10:43:52.932Z,1021.91
2018-10-03T10:44:53.007Z,1021.88
2018-10-03T10:45:52.985Z,1021.87
2018-10-03T10:46:53.072Z,1021.90
2018-10-03T10:47:53.050Z,1021.88
2018-10-03T10:48:53.140Z,1021.89
2018-10-03T10:49:53.171Z,1021.88
2018-10-03T10:50:53.141Z,1021.86
2018-10-03T10:51:53.302Z,1021.85
2018-10-03T10:52:53.257Z,1021.91
2018-10-03T10:53:53.287Z,1021.86
2018-10-03T10:54:53.262Z,1021.89
2018-10-03T10:55:53.601Z,1021.91
2018-10-03T10:57:53.412Z,1021.94
2018-10-03T10:58:53.440Z,1021.92
2018-10-03T10:59:53.524Z,1021.93
2018-10-03T11:00:53.494Z,1021.96
2018-10-03T11:02:53.560Z,1021.95
2018-10-03T11:03:53.844Z,1021.97
2018-10-03T11:04:53.576Z,1021.94
2018-10-03T11:05:53.858Z,1021.92
2018-10-03T11:06:53.688Z,1021.95
2018-10-03T11:07:53.731Z,1021.94
2018-10-03T11:08:53.849Z,1021.94
2018-10-03T11:09:53.741Z,1022.00
2018-10-03T11:10:54.079Z,1021.98
2018-10-03T11:11:53.791Z,1022.00
2018-10-03T11:12:53.823Z,1021.99
2018-10-03T11:13:53.899Z,1022.00
2018-10-03T11:14:53.935Z,1021.96
2018-10-03T11:15:53.913Z,1021.96
2018-10-03T11:16:54.070Z,1021.97
2018-10-03T11:17:54.336Z,1022.06
2018-10-03T11:18:54.069Z,1022.06
2018-10-03T11:19:54.038Z,1022.05
2018-10-03T11:20:54.077Z,1022.08
2018-10-03T11:21:54.201Z,1022.06
2018-10-03T11:22:54.191Z,1022.11
2018-10-03T11:23:54.409Z,1022.10
2018-10-03T11:24:54.652Z,1022.10
2018-10-03T11:25:54.278Z,1022.14
2018-10-03T11:26:54.270Z,1022.12
2018-10-03T11:27:54.290Z,1022.17
2018-10-03T11:28:54.383Z,1022.13
2018-10-03T11:29:54.404Z,1022.12
2018-10-03T11:30:54.388Z,1022.10
2018-10-03T11:31:54.718Z,1022.12
2018-10-03T11:32:54.507Z,1022.11
2018-10-03T11:33:54.473Z,1022.05
2018-10-03T11:34:54.513Z,1022.14
2018-10-03T11:35:54.604Z,1022.09
2018-10-03T11:36:54.567Z,1022.11
2018-10-03T11:37:54.654Z,1022.10
2018-10-03T11:38:54.692Z,1022.07
2018-10-03T11:39:54.665Z,1022.07
2018-10-03T11:40:54.690Z,1022.07
2018-10-03T11:41:54.784Z,1022.06
2018-10-03T11:42:54.753Z,1022.12
2018-10-03T11:43:54.919Z,1022.08
2018-10-03T11:44:55.163Z,1022.07
2018-10-03T11:45:54.897Z,1022.05
2018-10-03T11:46:54.932Z,1022.05
2018-10-03T11:47:54.932Z,1022.03
2018-10-03T11:48:54.953Z,1022.00
2018-10-03T11:49:54.973Z,1022.01
2018-10-03T11:50:55.311Z,1022.00
2018-10-03T11:51:55.103Z,1022.02
2018-10-03T11:52:55.120Z,1021.99
2018-10-03T11:53:55.152Z,1021.99
2018-10-03T11:54:55.128Z,1021.97
2018-10-03T11:55:55.172Z,1021.96
2018-10-03T11:56:55.259Z,1021.95
2018-10-03T11:57:55.285Z,1021.95
2018-10-03T11:58:55.311Z,1022.01
2018-10-03T11:59:55.299Z,1022.04
2018-10-03T12:00:55.317Z,1022.03
2018-10-03T12:01:55.363Z,1022.03
2018-10-03T12:02:55.777Z,1022.00
2018-10-03T12:03:55.414Z,1021.99
2018-10-03T12:04:55.498Z,1022.02
2018-10-03T12:05:55.525Z,1022.04
2018-10-03T12:06:55.558Z,1022.07
2018-10-03T12:07:55.564Z,1022.08
2018-10-03T12:08:55.623Z,1022.10
2018-10-03T12:09:55.968Z,1022.06
2018-10-03T12:10:55.648Z,1022.09
2018-10-03T12:11:55.664Z,1022.04
2018-10-03T12:12:55.743Z,1022.07
2018-10-03T12:13:55.806Z,1022.05
2018-10-03T12:14:55.811Z,1022.10
2018-10-03T12:15:55.792Z,1022.01
2018-10-03T12:16:56.131Z,1022.02
2018-10-03T12:17:55.907Z,1021.99
2018-10-03T12:18:55.884Z,1022.00
2018-10-03T12:19:55.926Z,1021.99
2018-10-03T12:20:56.005Z,1021.98
2018-10-03T12:21:55.977Z,1021.96
2018-10-03T12:22:56.061Z,1022.02
2018-10-03T12:23:56.394Z,1022.02
2018-10-03T12:24:56.076Z,1022.05
2018-10-03T12:25:56.153Z,1022.03
2018-10-03T12:26:56.155Z,1022.03
2018-10-03T12:27:56.220Z,1021.99
2018-10-03T12:28:56.258Z,1022.03
2018-10-03T12:29:56.234Z,1021.92
2018-10-03T12:30:56.261Z,1021.90
2018-10-03T12:31:56.314Z,1021.94
2018-10-03T12:32:56.392Z,1021.88